createdAt,value
2023-05-01T00:04:29.059Z,13.58
2023-05-01T00:09:32.443Z,13.50
2023-05-01T00:14:35.018Z,13.48
2023-05-01T00:19:37.618Z,13.50
2023-05-01T00:24:40.176Z,13.49
2023-05-01T00:29:42.706Z,13.47
2023-05-01T00:34:47.885Z,13.40
2023-05-01T00:39:50.523Z,13.43
2023-05-01T00:44:53.121Z,13.47
2023-05-01T00:49:56.350Z,13.47
2023-05-01T00:54:59.452Z,13.36
2023-05-01T01:00:02.391Z,13.38
2023-05-01T01:05:06.728Z,13.46
2023-05-01T01:21:21.138Z,13.22
2023-05-01T01:32:15.559Z,13.20
2023-05-01T01:37:24.093Z,13.08
2023-05-01T01:42:35.120Z,13.02
2023-05-01T01:47:41.849Z,13.11
2023-05-01T01:52:49.629Z,13.02
2023-05-01T01:57:53.661Z,13.10
2023-05-01T02:02:59.406Z,13.08
2023-05-01T02:08:05.286Z,13.19
2023-05-01T02:13:09.504Z,13.17
2023-05-01T02:18:13.686Z,13.22
2023-05-01T02:23:16.839Z,13.16
2023-05-01T02:28:22.957Z,13.17
2023-05-01T02:33:25.939Z,13.12
2023-05-01T02:38:29.378Z,13.19
2023-05-01T02:43:34.383Z,13.09
2023-05-01T02:48:39.589Z,13.13
2023-05-01T02:53:42.700Z,13.07
2023-05-01T02:58:54.323Z,12.96
2023-05-01T03:03:57.072Z,12.87
2023-05-01T03:08:59.818Z,12.85
2023-05-01T03:14:02.406Z,12.90
2023-05-01T03:19:06.173Z,12.88
2023-05-01T03:24:08.868Z,13.03
2023-05-01T03:29:13.395Z,13.11
2023-05-01T03:34:16.287Z,13.08
2023-05-01T03:39:19.302Z,12.93
2023-05-01T03:44:41.573Z,12.93
2023-05-01T03:49:44.211Z,13.01
2023-05-01T03:54:47.388Z,13.17
2023-05-01T03:59:57.677Z,13.12
2023-05-01T04:05:01.147Z,13.16
2023-05-01T04:10:07.327Z,13.23
2023-05-01T04:15:10.511Z,13.22
2023-05-01T04:20:13.063Z,13.38
2023-05-01T04:25:16.111Z,13.50
2023-05-01T04:30:20.561Z,13.58
2023-05-01T04:35:23.717Z,13.49
2023-05-01T04:40:26.336Z,13.57
2023-05-01T04:45:29.088Z,13.80
2023-05-01T04:50:31.987Z,14.01
2023-05-01T04:55:36.056Z,14.11
2023-05-01T05:00:43.374Z,14.24
2023-05-01T05:05:52.182Z,14.52
2023-05-01T05:11:00.149Z,14.61
2023-05-01T05:16:07.491Z,14.56
2023-05-01T05:21:10.671Z,14.44
2023-05-01T05:26:18.265Z,14.59
2023-05-01T05:31:21.048Z,14.77
2023-05-01T05:36:24.935Z,14.94
2023-05-01T05:41:30.827Z,15.00
2023-05-01T05:46:36.284Z,15.18
2023-05-01T05:51:38.947Z,15.24
2023-05-01T05:56:43.410Z,15.28
2023-05-01T06:01:47.440Z,15.27
2023-05-01T06:06:52.650Z,15.36
2023-05-01T06:11:55.768Z,15.48
2023-05-01T06:16:58.605Z,15.48
2023-05-01T06:22:01.169Z,15.67
2023-05-01T06:27:05.219Z,15.70
2023-05-01T06:32:08.152Z,15.62
2023-05-01T06:37:10.904Z,15.80
2023-05-01T06:42:16.232Z,16.05
2023-05-01T06:47:18.791Z,16.03
2023-05-01T06:52:21.371Z,16.10
2023-05-01T06:57:23.967Z,16.19
2023-05-01T07:02:26.795Z,16.21
2023-05-01T07:07:31.050Z,16.21
2023-05-01T07:12:33.723Z,16.45
2023-05-01T07:17:36.471Z,16.34
2023-05-01T07:22:39.373Z,16.31
2023-05-01T07:27:42.222Z,16.63
2023-05-01T07:32:45.309Z,16.33
2023-05-01T07:37:51.683Z,16.33
2023-05-01T07:42:54.803Z,16.44
2023-05-01T07:47:57.627Z,16.70
2023-05-01T07:53:00.470Z,16.92
2023-05-01T07:58:03.762Z,16.73
2023-05-01T08:03:09.387Z,16.88
2023-05-01T08:08:13.444Z,16.99
2023-05-01T08:13:16.250Z,16.87
2023-05-01T08:18:23.177Z,16.86
2023-05-01T08:23:26.099Z,17.20
2023-05-01T08:28:29.128Z,17.51
2023-05-01T08:33:32.035Z,17.32
2023-05-01T08:38:37.595Z,17.28
2023-05-01T08:43:41.090Z,17.19
2023-05-01T08:48:46.087Z,17.55
2023-05-01T08:53:52.585Z,17.35
2023-05-01T08:58:57.711Z,17.45
2023-05-01T09:04:03.642Z,17.44
2023-05-01T09:09:08.377Z,17.63
2023-05-01T09:14:11.697Z,17.75
2023-05-01T09:19:14.573Z,17.74
2023-05-01T09:24:17.775Z,17.87
2023-05-01T09:29:42.771Z,17.99
2023-05-01T09:34:45.585Z,18.09
2023-05-01T09:39:48.728Z,18.21
2023-05-01T09:44:52.961Z,18.03
2023-05-01T09:49:58.041Z,18.00
2023-05-01T09:55:18.783Z,18.32
2023-05-01T10:00:22.753Z,18.72
2023-05-01T10:05:26.579Z,18.78
2023-05-01T10:10:29.876Z,18.93
2023-05-01T10:15:40.318Z,18.99
2023-05-01T10:20:44.549Z,19.34
2023-05-01T10:25:51.476Z,19.59
2023-05-01T10:30:56.051Z,19.75
2023-05-01T10:36:01.133Z,20.15
2023-05-01T10:41:04.382Z,20.40
2023-05-01T10:51:26.649Z,20.82
2023-05-01T11:01:45.777Z,20.61
2023-05-01T11:18:00.849Z,21.54
2023-05-01T11:23:03.711Z,21.74
2023-05-01T11:28:07.514Z,21.58
2023-05-01T11:33:13.255Z,22.19
2023-05-01T11:38:19.042Z,21.73
2023-05-01T11:43:21.710Z,22.54
2023-05-01T11:48:24.399Z,22.80
2023-05-01T11:53:27.031Z,23.07
2023-05-01T11:58:33.663Z,23.17
2023-05-01T12:03:44.502Z,22.67
2023-05-01T12:08:51.416Z,22.70
2023-05-01T12:13:54.281Z,22.93
2023-05-01T12:18:57.516Z,22.45
2023-05-01T12:24:18.285Z,22.21
2023-05-01T12:29:20.853Z,22.35
2023-05-01T12:34:31.434Z,21.60
2023-05-01T12:39:39.165Z,21.29
2023-05-01T12:44:43.353Z,20.91
2023-05-01T12:49:46.159Z,20.68
2023-05-01T12:54:50.620Z,21.07
2023-05-01T13:00:00.561Z,20.75
2023-05-01T13:05:08.728Z,20.40
2023-05-01T13:10:11.410Z,20.33
2023-05-01T13:15:22.202Z,20.72
2023-05-01T13:20:27.091Z,22.46
2023-05-01T13:25:29.711Z,22.46
2023-05-01T13:30:33.772Z,21.75
2023-05-01T13:35:36.439Z,21.08
2023-05-01T13:40:40.965Z,21.18
2023-05-01T13:45:43.584Z,21.41
2023-05-01T13:50:46.388Z,21.82
2023-05-01T13:55:48.901Z,21.65
2023-05-01T14:00:51.642Z,21.27
2023-05-01T14:05:54.394Z,20.74
2023-05-01T14:10:59.754Z,20.32
2023-05-01T14:16:10.505Z,20.19
2023-05-01T14:21:17.604Z,19.90
2023-05-01T14:26:22.335Z,19.59
2023-05-01T14:31:29.584Z,19.35
2023-05-01T14:36:34.090Z,19.25
2023-05-01T14:41:40.646Z,18.90
2023-05-01T14:46:47.325Z,18.78
2023-05-01T14:51:50.719Z,18.49
2023-05-01T14:56:53.413Z,18.19
2023-05-01T15:01:56.102Z,18.00
2023-05-01T15:06:58.826Z,17.99
2023-05-01T15:12:01.561Z,17.93
2023-05-01T15:17:04.121Z,17.87
2023-05-01T15:22:06.890Z,17.67
2023-05-01T15:27:09.404Z,17.53
2023-05-01T15:32:13.113Z,17.43
2023-05-01T15:37:15.892Z,17.31
2023-05-01T15:42:19.562Z,17.25
2023-05-01T15:47:22.265Z,17.11
2023-05-01T15:52:24.854Z,17.08
2023-05-01T15:57:27.477Z,17.00
2023-05-01T16:02:32.933Z,17.00
2023-05-01T16:07:35.945Z,17.01
2023-05-01T16:12:38.578Z,16.93
2023-05-01T16:17:43.973Z,16.87
2023-05-01T16:22:46.739Z,16.78
2023-05-01T16:27:49.312Z,16.72
2023-05-01T16:32:51.909Z,16.64
2023-05-01T16:37:55.553Z,16.57
2023-05-01T16:43:02.621Z,16.52
2023-05-01T16:48:06.300Z,16.46
2023-05-01T16:53:09.485Z,16.37
2023-05-01T16:58:12.053Z,16.21
2023-05-01T17:03:18.867Z,16.12
2023-05-01T17:08:21.587Z,16.09
2023-05-01T17:13:24.068Z,16.01
2023-05-01T17:18:27.909Z,15.96
2023-05-01T17:23:30.564Z,15.87
2023-05-01T17:28:33.180Z,15.79
2023-05-01T17:33:35.954Z,15.75
2023-05-01T17:38:38.535Z,15.69
2023-05-01T17:43:44.782Z,15.64
2023-05-01T17:48:48.845Z,15.58
2023-05-01T17:53:51.684Z,15.44
2023-05-01T17:58:55.113Z,15.33
2023-05-01T18:03:58.002Z,15.23
2023-05-01T18:09:01.628Z,15.22
2023-05-01T18:14:05.319Z,15.16
2023-05-01T18:19:07.956Z,15.09
2023-05-01T18:24:10.612Z,14.96
2023-05-01T18:29:13.745Z,14.92
2023-05-01T18:34:16.481Z,14.83
2023-05-01T18:39:22.037Z,14.83
2023-05-01T18:44:24.755Z,14.79
2023-05-01T18:49:27.462Z,14.81
2023-05-01T18:54:32.298Z,14.79
2023-05-01T18:59:34.862Z,14.76
2023-05-01T19:04:49.449Z,14.77
2023-05-01T19:09:59.395Z,14.69
2023-05-01T19:15:02.156Z,14.67
2023-05-01T19:20:07.218Z,14.63
2023-05-01T19:25:10.105Z,14.62
2023-05-01T19:30:12.800Z,14.52
2023-05-01T19:35:15.608Z,14.50
2023-05-01T19:40:18.323Z,14.47
2023-05-01T19:45:21.157Z,14.41
2023-05-01T19:50:23.752Z,14.40
2023-05-01T19:55:26.595Z,14.40
2023-05-01T20:00:29.199Z,14.32
2023-05-01T20:05:32.651Z,14.31
2023-05-01T20:10:35.412Z,14.32
2023-05-01T20:15:39.605Z,14.28
2023-05-01T20:20:42.836Z,14.27
2023-05-01T20:25:47.842Z,14.27
2023-05-01T20:30:50.873Z,14.26
2023-05-01T20:35:54.179Z,14.21
2023-05-01T20:40:56.850Z,14.26
2023-05-01T20:46:00.974Z,14.23
2023-05-01T20:51:03.680Z,14.16
2023-05-01T20:56:06.399Z,14.23
2023-05-01T21:01:09.261Z,14.18
2023-05-01T21:06:12.221Z,14.14
2023-05-01T21:11:15.308Z,14.06
2023-05-01T21:16:19.927Z,14.04
2023-05-01T21:21:22.901Z,14.04
2023-05-01T21:26:25.832Z,14.09
2023-05-01T21:31:32.612Z,14.05
2023-05-01T21:36:45.184Z,14.14
2023-05-01T21:41:49.573Z,14.16
2023-05-01T21:46:55.120Z,14.25
2023-05-01T21:52:00.844Z,14.23
2023-05-01T21:57:07.717Z,14.12
2023-05-01T22:02:12.271Z,14.27
2023-05-01T22:07:15.609Z,14.22
2023-05-01T22:12:18.412Z,14.21
2023-05-01T22:17:24.514Z,14.23
2023-05-01T22:22:27.128Z,14.23
2023-05-01T22:27:30.113Z,14.27
2023-05-01T22:32:32.839Z,14.24
2023-05-01T22:37:35.448Z,14.15
2023-05-01T22:42:38.132Z,14.19
2023-05-01T22:47:40.997Z,14.16
2023-05-01T22:52:45.835Z,14.21
2023-05-01T22:57:49.207Z,14.24
2023-05-01T23:02:51.969Z,14.29
2023-05-01T23:07:54.561Z,14.38
2023-05-01T23:12:57.605Z,14.34
2023-05-01T23:18:00.303Z,14.39
2023-05-01T23:23:05.418Z,14.40
2023-05-01T23:28:09.537Z,14.24
2023-05-01T23:33:12.676Z,14.11
2023-05-01T23:38:15.400Z,14.00
2023-05-01T23:43:18.458Z,14.07
2023-05-01T23:48:21.104Z,13.95
2023-05-01T23:53:23.829Z,13.88
2023-05-01T23:58:26.440Z,13.85
